sensor_id;sensor_type;location;lat;lon;timestamp;temperature;humidity
26655;DHT22;14278;50.784;4.630;2022-12-18T00:00:45;-3.60;99.90
26655;DHT22;14278;50.784;4.630;2022-12-18T00:03:13;-3.60;99.90
26655;DHT22;14278;50.784;4.630;2022-12-18T00:05:50;-3.70;99.90
26655;DHT22;14278;50.784;4.630;2022-12-18T00:08:16;-3.70;99.90
26655;DHT22;14278;50.784;4.630;2022-12-18T00:10:43;-3.70;99.90
26655;DHT22;14278;50.784;4.630;2022-12-18T00:13:10;-3.70;99.90
26655;DHT22;14278;50.784;4.630;2022-12-18T00:15:38;-3.70;99.90
26655;DHT22;14278;50.784;4.630;2022-12-18T00:18:04;-3.90;99.90
26655;DHT22;14278;50.784;4.630;2022-12-18T00:20:30;-3.80;99.90
26655;DHT22;14278;50.784;4.630;2022-12-18T00:22:56;-3.70;99.90
26655;DHT22;14278;50.784;4.630;2022-12-18T00:25:23;-3.80;99.90
26655;DHT22;14278;50.784;4.630;2022-12-18T00:27:49;-3.70;99.90
26655;DHT22;14278;50.784;4.630;2022-12-18T00:30:15;-3.50;99.90
26655;DHT22;14278;50.784;4.630;2022-12-18T00:32:40;-3.10;99.90
26655;DHT22;14278;50.784;4.630;2022-12-18T00:35:07;-2.90;99.90
26655;DHT22;14278;50.784;4.630;2022-12-18T00:37:34;-3.00;99.90
26655;DHT22;14278;50.784;4.630;2022-12-18T00:40:00;-2.90;99.90
26655;DHT22;14278;50.784;4.630;2022-12-18T00:42:26;-3.30;99.90
26655;DHT22;14278;50.784;4.630;2022-12-18T00:45:10;-3.70;99.90
26655;DHT22;14278;50.784;4.630;2022-12-18T00:47:36;-3.80;99.90
26655;DHT22;14278;50.784;4.630;2022-12-18T00:50:02;-3.90;99.90
26655;DHT22;14278;50.784;4.630;2022-12-18T00:52:29;-3.90;99.90
26655;DHT22;14278;50.784;4.630;2022-12-18T00:54:54;-3.90;99.90
26655;DHT22;14278;50.784;4.630;2022-12-18T00:57:20;-4.00;99.90
26655;DHT22;14278;50.784;4.630;2022-12-18T00:59:46;-4.00;99.90
26655;DHT22;14278;50.784;4.630;2022-12-18T01:02:12;-3.80;99.90
26655;DHT22;14278;50.784;4.630;2022-12-18T01:04:38;-3.90;99.90
26655;DHT22;14278;50.784;4.630;2022-12-18T01:07:04;-3.80;99.90
26655;DHT22;14278;50.784;4.630;2022-12-18T01:09:30;-4.00;99.90
26655;DHT22;14278;50.784;4.630;2022-12-18T01:11:55;-3.90;99.90
26655;DHT22;14278;50.784;4.630;2022-12-18T01:14:21;-3.80;99.90
26655;DHT22;14278;50.784;4.630;2022-12-18T01:16:47;-3.70;99.90
26655;DHT22;14278;50.784;4.630;2022-12-18T01:19:13;-3.70;99.90
26655;DHT22;14278;50.784;4.630;2022-12-18T01:21:39;-3.90;99.90
26655;DHT22;14278;50.784;4.630;2022-12-18T01:24:05;-3.60;99.90
26655;DHT22;14278;50.784;4.630;2022-12-18T01:26:31;-3.70;99.90
26655;DHT22;14278;50.784;4.630;2022-12-18T01:28:58;-4.20;99.90
26655;DHT22;14278;50.784;4.630;2022-12-18T01:31:28;-4.30;99.90
26655;DHT22;14278;50.784;4.630;2022-12-18T01:33:55;-3.90;99.90
26655;DHT22;14278;50.784;4.630;2022-12-18T01:36:26;-3.90;99.90
26655;DHT22;14278;50.784;4.630;2022-12-18T01:38:53;-4.30;99.90
26655;DHT22;14278;50.784;4.630;2022-12-18T01:41:23;-4.30;99.90
26655;DHT22;14278;50.784;4.630;2022-12-18T01:43:55;-3.80;99.90
26655;DHT22;14278;50.784;4.630;2022-12-18T01:46:23;-3.70;99.90
26655;DHT22;14278;50.784;4.630;2022-12-18T01:48:52;-3.50;99.90
26655;DHT22;14278;50.784;4.630;2022-12-18T01:51:20;-3.50;99.90
26655;DHT22;14278;50.784;4.630;2022-12-18T01:53:47;-3.80;99.90
26655;DHT22;14278;50.784;4.630;2022-12-18T01:56:18;-4.00;99.90
26655;DHT22;14278;50.784;4.630;2022-12-18T01:59:02;-4.30;99.90
26655;DHT22;14278;50.784;4.630;2022-12-18T02:01:29;-4.40;99.90
26655;DHT22;14278;50.784;4.630;2022-12-18T02:03:56;-4.60;99.90
26655;DHT22;14278;50.784;4.630;2022-12-18T02:06:41;-4.60;99.90
26655;DHT22;14278;50.784;4.630;2022-12-18T02:11:50;-4.30;99.90
26655;DHT22;14278;50.784;4.630;2022-12-18T02:14:48;-4.00;99.90
26655;DHT22;14278;50.784;4.630;2022-12-18T02:17:23;-4.10;99.90
26655;DHT22;14278;50.784;4.630;2022-12-18T02:23:28;-4.40;99.90
26655;DHT22;14278;50.784;4.630;2022-12-18T02:26:14;-4.30;99.90
26655;DHT22;14278;50.784;4.630;2022-12-18T02:28:49;-4.60;99.90
26655;DHT22;14278;50.784;4.630;2022-12-18T02:31:21;-4.40;99.90
26655;DHT22;14278;50.784;4.630;2022-12-18T02:33:49;-4.60;99.90
26655;DHT22;14278;50.784;4.630;2022-12-18T02:36:18;-4.30;99.90
26655;DHT22;14278;50.784;4.630;2022-12-18T02:38:46;-3.80;99.90
26655;DHT22;14278;50.784;4.630;2022-12-18T02:41:13;-3.50;99.90
26655;DHT22;14278;50.784;4.630;2022-12-18T02:43:41;-3.90;99.90
26655;DHT22;14278;50.784;4.630;2022-12-18T02:46:45;-4.50;99.90
26655;DHT22;14278;50.784;4.630;2022-12-18T02:52:12;-4.60;99.90
26655;DHT22;14278;50.784;4.630;2022-12-18T02:54:57;-4.40;99.90
26655;DHT22;14278;50.784;4.630;2022-12-18T03:00:15;-4.40;99.90
26655;DHT22;14278;50.784;4.630;2022-12-18T03:02:44;-4.60;99.90
26655;DHT22;14278;50.784;4.630;2022-12-18T03:05:19;-5.00;99.90
26655;DHT22;14278;50.784;4.630;2022-12-18T03:10:18;-4.60;99.90
26655;DHT22;14278;50.784;4.630;2022-12-18T03:12:51;-4.50;99.90
26655;DHT22;14278;50.784;4.630;2022-12-18T03:15:28;-4.30;99.90
26655;DHT22;14278;50.784;4.630;2022-12-18T03:17:59;-4.60;99.90
26655;DHT22;14278;50.784;4.630;2022-12-18T03:20:31;-5.00;99.90
26655;DHT22;14278;50.784;4.630;2022-12-18T03:23:04;-5.10;99.90
26655;DHT22;14278;50.784;4.630;2022-12-18T03:25:34;-5.30;99.90
26655;DHT22;14278;50.784;4.630;2022-12-18T03:28:04;-5.10;99.90
26655;DHT22;14278;50.784;4.630;2022-12-18T03:30:34;-5.10;99.90
26655;DHT22;14278;50.784;4.630;2022-12-18T03:33:20;-5.20;99.90
26655;DHT22;14278;50.784;4.630;2022-12-18T03:35:49;-5.00;99.90
26655;DHT22;14278;50.784;4.630;2022-12-18T03:38:16;-4.90;99.90
26655;DHT22;14278;50.784;4.630;2022-12-18T03:46:42;-5.10;99.90
26655;DHT22;14278;50.784;4.630;2022-12-18T03:49:34;-4.70;99.90
26655;DHT22;14278;50.784;4.630;2022-12-18T03:52:11;-5.00;99.90
26655;DHT22;14278;50.784;4.630;2022-12-18T03:54:41;-4.80;99.90
26655;DHT22;14278;50.784;4.630;2022-12-18T03:57:18;-4.50;99.90
26655;DHT22;14278;50.784;4.630;2022-12-18T03:59:46;-4.60;99.90
26655;DHT22;14278;50.784;4.630;2022-12-18T04:02:16;-4.90;99.90
26655;DHT22;14278;50.784;4.630;2022-12-18T04:04:43;-4.60;99.90
26655;DHT22;14278;50.784;4.630;2022-12-18T04:07:10;-4.80;99.90
26655;DHT22;14278;50.784;4.630;2022-12-18T04:09:38;-5.00;99.90
26655;DHT22;14278;50.784;4.630;2022-12-18T04:12:04;-5.00;99.90
26655;DHT22;14278;50.784;4.630;2022-12-18T04:14:30;-4.90;99.90
26655;DHT22;14278;50.784;4.630;2022-12-18T04:17:01;-4.90;99.90
26655;DHT22;14278;50.784;4.630;2022-12-18T04:19:27;-5.00;99.90
26655;DHT22;14278;50.784;4.630;2022-12-18T04:21:54;-4.60;99.90
26655;DHT22;14278;50.784;4.630;2022-12-18T04:24:20;-5.00;99.90
26655;DHT22;14278;50.784;4.630;2022-12-18T04:26:46;-5.10;99.90
26655;DHT22;14278;50.784;4.630;2022-12-18T04:29:12;-5.00;99.90
26655;DHT22;14278;50.784;4.630;2022-12-18T04:31:37;-4.60;99.90
26655;DHT22;14278;50.784;4.630;2022-12-18T04:34:04;-4.70;99.90
26655;DHT22;14278;50.784;4.630;2022-12-18T04:36:30;-4.80;99.90
26655;DHT22;14278;50.784;4.630;2022-12-18T04:38:56;-4.40;99.90
26655;DHT22;14278;50.784;4.630;2022-12-18T04:41:22;-4.50;99.90
26655;DHT22;14278;50.784;4.630;2022-12-18T04:43:47;-4.60;99.90
26655;DHT22;14278;50.784;4.630;2022-12-18T04:46:14;-4.70;99.90
26655;DHT22;14278;50.784;4.630;2022-12-18T04:48:39;-4.90;99.90
26655;DHT22;14278;50.784;4.630;2022-12-18T04:51:06;-5.10;99.90
26655;DHT22;14278;50.784;4.630;2022-12-18T04:53:33;-4.70;99.90
26655;DHT22;14278;50.784;4.630;2022-12-18T04:56:06;-4.80;99.90
26655;DHT22;14278;50.784;4.630;2022-12-18T04:58:33;-4.50;99.90
26655;DHT22;14278;50.784;4.630;2022-12-18T05:00:58;-4.50;99.90
26655;DHT22;14278;50.784;4.630;2022-12-18T05:03:25;-4.60;99.90
26655;DHT22;14278;50.784;4.630;2022-12-18T05:05:51;-5.20;99.90
26655;DHT22;14278;50.784;4.630;2022-12-18T05:08:17;-5.00;99.90
26655;DHT22;14278;50.784;4.630;2022-12-18T05:10:43;-4.70;99.90
26655;DHT22;14278;50.784;4.630;2022-12-18T05:13:09;-4.40;99.90
26655;DHT22;14278;50.784;4.630;2022-12-18T05:15:36;-4.50;99.90
26655;DHT22;14278;50.784;4.630;2022-12-18T05:18:02;-4.80;99.90
26655;DHT22;14278;50.784;4.630;2022-12-18T05:20:29;-5.10;99.90
26655;DHT22;14278;50.784;4.630;2022-12-18T05:22:56;-5.70;99.90
26655;DHT22;14278;50.784;4.630;2022-12-18T05:25:23;-5.80;99.90
26655;DHT22;14278;50.784;4.630;2022-12-18T05:27:49;-5.30;99.90
26655;DHT22;14278;50.784;4.630;2022-12-18T05:30:15;-5.00;99.90
26655;DHT22;14278;50.784;4.630;2022-12-18T05:32:41;-5.20;99.90
26655;DHT22;14278;50.784;4.630;2022-12-18T05:35:09;-5.20;99.90
26655;DHT22;14278;50.784;4.630;2022-12-18T05:37:35;-5.30;99.90
26655;DHT22;14278;50.784;4.630;2022-12-18T05:40:03;-5.30;99.90
26655;DHT22;14278;50.784;4.630;2022-12-18T05:42:30;-5.50;99.90
26655;DHT22;14278;50.784;4.630;2022-12-18T05:44:56;-5.60;99.90
26655;DHT22;14278;50.784;4.630;2022-12-18T05:47:22;-5.20;99.90
26655;DHT22;14278;50.784;4.630;2022-12-18T05:49:48;-4.90;99.90
26655;DHT22;14278;50.784;4.630;2022-12-18T05:52:14;-5.10;99.90
26655;DHT22;14278;50.784;4.630;2022-12-18T05:54:40;-5.40;99.90
26655;DHT22;14278;50.784;4.630;2022-12-18T05:57:06;-5.20;99.90
26655;DHT22;14278;50.784;4.630;2022-12-18T05:59:32;-4.70;99.90
26655;DHT22;14278;50.784;4.630;2022-12-18T06:01:58;-4.40;99.90
26655;DHT22;14278;50.784;4.630;2022-12-18T06:04:27;-4.80;99.90
26655;DHT22;14278;50.784;4.630;2022-12-18T06:06:55;-5.40;99.90
26655;DHT22;14278;50.784;4.630;2022-12-18T06:09:21;-5.80;99.90
26655;DHT22;14278;50.784;4.630;2022-12-18T06:11:47;-5.80;99.90
26655;DHT22;14278;50.784;4.630;2022-12-18T06:14:13;-5.80;99.90
26655;DHT22;14278;50.784;4.630;2022-12-18T06:16:42;-5.10;99.90
26655;DHT22;14278;50.784;4.630;2022-12-18T06:19:12;-4.80;99.90
26655;DHT22;14278;50.784;4.630;2022-12-18T06:21:39;-5.30;99.90
26655;DHT22;14278;50.784;4.630;2022-12-18T06:24:05;-5.30;99.90
26655;DHT22;14278;50.784;4.630;2022-12-18T06:26:31;-4.80;99.90
26655;DHT22;14278;50.784;4.630;2022-12-18T06:28:58;-5.20;99.90
26655;DHT22;14278;50.784;4.630;2022-12-18T06:31:24;-5.60;99.90
26655;DHT22;14278;50.784;4.630;2022-12-18T06:33:50;-5.00;99.90
26655;DHT22;14278;50.784;4.630;2022-12-18T06:36:16;-5.10;99.90
26655;DHT22;14278;50.784;4.630;2022-12-18T06:38:44;-5.30;99.90
26655;DHT22;14278;50.784;4.630;2022-12-18T06:41:12;-5.30;99.90
26655;DHT22;14278;50.784;4.630;2022-12-18T06:43:38;-5.40;99.90
26655;DHT22;14278;50.784;4.630;2022-12-18T06:46:04;-5.10;99.90
26655;DHT22;14278;50.784;4.630;2022-12-18T06:48:31;-4.90;99.90
26655;DHT22;14278;50.784;4.630;2022-12-18T06:50:57;-4.90;99.90
26655;DHT22;14278;50.784;4.630;2022-12-18T06:53:24;-4.70;99.90
26655;DHT22;14278;50.784;4.630;2022-12-18T06:55:50;-4.60;99.90
26655;DHT22;14278;50.784;4.630;2022-12-18T06:58:16;-4.40;99.90
26655;DHT22;14278;50.784;4.630;2022-12-18T07:00:43;-4.60;99.90
26655;DHT22;14278;50.784;4.630;2022-12-18T07:03:09;-4.70;99.90
26655;DHT22;14278;50.784;4.630;2022-12-18T07:05:39;-4.50;99.90
26655;DHT22;14278;50.784;4.630;2022-12-18T07:08:05;-4.40;99.90
26655;DHT22;14278;50.784;4.630;2022-12-18T07:10:31;-4.50;99.90
26655;DHT22;14278;50.784;4.630;2022-12-18T07:12:58;-4.20;99.90
26655;DHT22;14278;50.784;4.630;2022-12-18T07:15:23;-4.10;99.90
26655;DHT22;14278;50.784;4.630;2022-12-18T07:17:50;-4.40;99.90
26655;DHT22;14278;50.784;4.630;2022-12-18T07:20:15;-4.70;99.90
26655;DHT22;14278;50.784;4.630;2022-12-18T07:22:41;-4.70;99.90
26655;DHT22;14278;50.784;4.630;2022-12-18T07:25:07;-4.40;99.90
26655;DHT22;14278;50.784;4.630;2022-12-18T07:27:34;-4.30;99.90
26655;DHT22;14278;50.784;4.630;2022-12-18T07:30:00;-4.50;99.90
26655;DHT22;14278;50.784;4.630;2022-12-18T07:32:26;-4.80;99.90
26655;DHT22;14278;50.784;4.630;2022-12-18T07:34:51;-4.60;99.90
26655;DHT22;14278;50.784;4.630;2022-12-18T07:37:18;-4.40;99.90
26655;DHT22;14278;50.784;4.630;2022-12-18T07:39:43;-4.20;99.90
26655;DHT22;14278;50.784;4.630;2022-12-18T07:42:10;-4.10;99.90
26655;DHT22;14278;50.784;4.630;2022-12-18T07:44:54;-4.30;99.90
26655;DHT22;14278;50.784;4.630;2022-12-18T07:47:19;-4.50;99.90
26655;DHT22;14278;50.784;4.630;2022-12-18T07:49:46;-4.50;99.90
26655;DHT22;14278;50.784;4.630;2022-12-18T07:52:11;-4.50;99.90
26655;DHT22;14278;50.784;4.630;2022-12-18T07:54:38;-4.50;99.90
26655;DHT22;14278;50.784;4.630;2022-12-18T07:57:04;-4.10;99.90
26655;DHT22;14278;50.784;4.630;2022-12-18T07:59:30;-3.90;99.90
26655;DHT22;14278;50.784;4.630;2022-12-18T08:01:56;-4.20;99.90
26655;DHT22;14278;50.784;4.630;2022-12-18T08:04:22;-4.10;99.90
26655;DHT22;14278;50.784;4.630;2022-12-18T08:06:48;-4.30;99.90
26655;DHT22;14278;50.784;4.630;2022-12-18T08:09:14;-4.20;99.90
26655;DHT22;14278;50.784;4.630;2022-12-18T08:11:40;-4.40;99.90
26655;DHT22;14278;50.784;4.630;2022-12-18T08:14:06;-4.00;99.90
26655;DHT22;14278;50.784;4.630;2022-12-18T08:16:32;-3.70;99.90
26655;DHT22;14278;50.784;4.630;2022-12-18T08:18:58;-3.60;99.90
26655;DHT22;14278;50.784;4.630;2022-12-18T08:21:27;-2.90;99.90
26655;DHT22;14278;50.784;4.630;2022-12-18T08:23:55;-2.30;99.90
26655;DHT22;14278;50.784;4.630;2022-12-18T08:26:22;-1.80;99.90
26655;DHT22;14278;50.784;4.630;2022-12-18T08:28:49;-1.90;99.90
26655;DHT22;14278;50.784;4.630;2022-12-18T08:31:15;-2.20;99.90
26655;DHT22;14278;50.784;4.630;2022-12-18T08:33:41;-1.60;99.90
26655;DHT22;14278;50.784;4.630;2022-12-18T08:36:08;-1.00;99.90
26655;DHT22;14278;50.784;4.630;2022-12-18T08:38:35;-0.80;99.90
26655;DHT22;14278;50.784;4.630;2022-12-18T08:41:08;-0.60;99.90
26655;DHT22;14278;50.784;4.630;2022-12-18T08:43:35;-0.20;99.90
26655;DHT22;14278;50.784;4.630;2022-12-18T08:46:21;0.20;99.90
26655;DHT22;14278;50.784;4.630;2022-12-18T08:48:47;0.40;99.90
26655;DHT22;14278;50.784;4.630;2022-12-18T08:51:16;0.30;99.90
26655;DHT22;14278;50.784;4.630;2022-12-18T08:53:43;-0.20;99.90
26655;DHT22;14278;50.784;4.630;2022-12-18T08:56:10;-0.10;99.90
26655;DHT22;14278;50.784;4.630;2022-12-18T08:58:36;-0.20;99.90
26655;DHT22;14278;50.784;4.630;2022-12-18T09:01:07;-0.10;99.90
26655;DHT22;14278;50.784;4.630;2022-12-18T09:03:33;0.30;99.90
26655;DHT22;14278;50.784;4.630;2022-12-18T09:05:59;0.20;99.90
26655;DHT22;14278;50.784;4.630;2022-12-18T09:08:25;0.30;99.90
26655;DHT22;14278;50.784;4.630;2022-12-18T09:10:51;0.20;99.90
26655;DHT22;14278;50.784;4.630;2022-12-18T09:13:18;0.50;99.90
26655;DHT22;14278;50.784;4.630;2022-12-18T09:15:47;0.80;99.90
26655;DHT22;14278;50.784;4.630;2022-12-18T09:18:14;0.60;99.90
26655;DHT22;14278;50.784;4.630;2022-12-18T09:20:40;0.70;99.90
26655;DHT22;14278;50.784;4.630;2022-12-18T09:23:07;0.40;99.90
26655;DHT22;14278;50.784;4.630;2022-12-18T09:25:33;0.10;99.90
26655;DHT22;14278;50.784;4.630;2022-12-18T09:28:02;0.30;99.90
26655;DHT22;14278;50.784;4.630;2022-12-18T09:30:28;0.30;99.90
26655;DHT22;14278;50.784;4.630;2022-12-18T09:32:55;0.40;99.90
26655;DHT22;14278;50.784;4.630;2022-12-18T09:35:21;0.10;99.90
26655;DHT22;14278;50.784;4.630;2022-12-18T09:37:47;0.10;99.90
26655;DHT22;14278;50.784;4.630;2022-12-18T09:40:22;0.00;99.90
26655;DHT22;14278;50.784;4.630;2022-12-18T09:42:54;0.20;99.90
26655;DHT22;14278;50.784;4.630;2022-12-18T09:45:21;-0.10;99.90
26655;DHT22;14278;50.784;4.630;2022-12-18T09:47:48;0.40;99.90
26655;DHT22;14278;50.784;4.630;2022-12-18T09:52:57;0.70;99.90
26655;DHT22;14278;50.784;4.630;2022-12-18T09:55:30;0.60;99.90
26655;DHT22;14278;50.784;4.630;2022-12-18T09:58:05;0.50;99.90
26655;DHT22;14278;50.784;4.630;2022-12-18T10:00:32;0.60;99.90
26655;DHT22;14278;50.784;4.630;2022-12-18T10:03:02;0.80;99.90
26655;DHT22;14278;50.784;4.630;2022-12-18T10:05:43;0.20;99.90
26655;DHT22;14278;50.784;4.630;2022-12-18T10:13:52;-0.20;99.90
26655;DHT22;14278;50.784;4.630;2022-12-18T10:16:34;0.30;99.90
26655;DHT22;14278;50.784;4.630;2022-12-18T10:19:11;0.50;99.90
26655;DHT22;14278;50.784;4.630;2022-12-18T10:24:39;1.10;99.90
26655;DHT22;14278;50.784;4.630;2022-12-18T10:27:19;1.50;99.90
26655;DHT22;14278;50.784;4.630;2022-12-18T10:29:47;1.30;99.90
26655;DHT22;14278;50.784;4.630;2022-12-18T10:32:15;1.40;99.90
26655;DHT22;14278;50.784;4.630;2022-12-18T10:34:48;0.90;99.90
26655;DHT22;14278;50.784;4.630;2022-12-18T10:37:23;1.30;99.90
26655;DHT22;14278;50.784;4.630;2022-12-18T10:40:10;1.40;99.90
26655;DHT22;14278;50.784;4.630;2022-12-18T10:42:37;1.30;99.90
26655;DHT22;14278;50.784;4.630;2022-12-18T10:45:21;1.30;99.90
26655;DHT22;14278;50.784;4.630;2022-12-18T10:47:48;1.40;99.90
26655;DHT22;14278;50.784;4.630;2022-12-18T10:50:31;1.50;99.90
26655;DHT22;14278;50.784;4.630;2022-12-18T10:52:59;1.40;99.90
26655;DHT22;14278;50.784;4.630;2022-12-18T10:55:38;1.50;99.90
26655;DHT22;14278;50.784;4.630;2022-12-18T10:58:27;1.70;99.90
26655;DHT22;14278;50.784;4.630;2022-12-18T11:01:16;1.60;99.90
26655;DHT22;14278;50.784;4.630;2022-12-18T11:06:23;1.40;99.90
26655;DHT22;14278;50.784;4.630;2022-12-18T11:09:00;1.40;99.90
26655;DHT22;14278;50.784;4.630;2022-12-18T11:11:26;1.20;99.90
26655;DHT22;14278;50.784;4.630;2022-12-18T11:14:20;1.40;99.90
26655;DHT22;14278;50.784;4.630;2022-12-18T11:16:48;2.20;99.90
26655;DHT22;14278;50.784;4.630;2022-12-18T11:19:37;2.70;99.90
26655;DHT22;14278;50.784;4.630;2022-12-18T11:22:23;2.70;99.90
26655;DHT22;14278;50.784;4.630;2022-12-18T11:24:59;2.20;99.90
26655;DHT22;14278;50.784;4.630;2022-12-18T11:27:26;1.90;99.90
26655;DHT22;14278;50.784;4.630;2022-12-18T11:30:09;1.90;99.90
26655;DHT22;14278;50.784;4.630;2022-12-18T11:32:36;2.40;99.90
26655;DHT22;14278;50.784;4.630;2022-12-18T11:35:17;2.80;99.90
26655;DHT22;14278;50.784;4.630;2022-12-18T11:37:54;3.00;99.90
26655;DHT22;14278;50.784;4.630;2022-12-18T11:40:37;2.80;99.90
26655;DHT22;14278;50.784;4.630;2022-12-18T11:43:32;2.80;99.90
26655;DHT22;14278;50.784;4.630;2022-12-18T11:46:14;2.80;99.90
26655;DHT22;14278;50.784;4.630;2022-12-18T11:49:13;2.20;99.90
26655;DHT22;14278;50.784;4.630;2022-12-18T11:51:51;2.40;99.90
26655;DHT22;14278;50.784;4.630;2022-12-18T11:54:20;2.20;99.90
26655;DHT22;14278;50.784;4.630;2022-12-18T11:56:51;2.40;99.90
26655;DHT22;14278;50.784;4.630;2022-12-18T11:59:47;2.60;99.90
26655;DHT22;14278;50.784;4.630;2022-12-18T12:02:41;2.50;99.90
26655;DHT22;14278;50.784;4.630;2022-12-18T12:08:45;2.40;99.90
26655;DHT22;14278;50.784;4.630;2022-12-18T12:17:03;2.30;99.90
26655;DHT22;14278;50.784;4.630;2022-12-18T12:19:48;2.30;99.90
26655;DHT22;14278;50.784;4.630;2022-12-18T12:40:40;3.00;99.90
26655;DHT22;14278;50.784;4.630;2022-12-18T12:43:27;2.80;99.90
26655;DHT22;14278;50.784;4.630;2022-12-18T12:46:11;2.60;99.90
26655;DHT22;14278;50.784;4.630;2022-12-18T12:48:46;2.40;99.90
26655;DHT22;14278;50.784;4.630;2022-12-18T12:51:34;2.60;99.90
26655;DHT22;14278;50.784;4.630;2022-12-18T12:54:04;2.50;99.90
26655;DHT22;14278;50.784;4.630;2022-12-18T13:01:52;2.20;99.90
26655;DHT22;14278;50.784;4.630;2022-12-18T13:05:14;1.80;99.90
26655;DHT22;14278;50.784;4.630;2022-12-18T13:07:29;1.70;99.90
26655;DHT22;14278;50.784;4.630;2022-12-18T13:12:59;1.70;99.90
26655;DHT22;14278;50.784;4.630;2022-12-18T13:18:23;1.80;99.90
26655;DHT22;14278;50.784;4.630;2022-12-18T13:21:01;1.80;99.90
26655;DHT22;14278;50.784;4.630;2022-12-18T13:23:34;1.90;99.90
26655;DHT22;14278;50.784;4.630;2022-12-18T13:31:14;1.90;99.90
26655;DHT22;14278;50.784;4.630;2022-12-18T13:33:45;1.70;99.90
26655;DHT22;14278;50.784;4.630;2022-12-18T13:36:25;1.70;99.90
26655;DHT22;14278;50.784;4.630;2022-12-18T13:41:40;1.70;99.90
26655;DHT22;14278;50.784;4.630;2022-12-18T13:44:33;1.60;99.90
26655;DHT22;14278;50.784;4.630;2022-12-18T13:46:59;1.80;99.90
26655;DHT22;14278;50.784;4.630;2022-12-18T13:49:40;1.70;99.90
26655;DHT22;14278;50.784;4.630;2022-12-18T13:52:25;1.70;99.90
26655;DHT22;14278;50.784;4.630;2022-12-18T13:54:55;1.70;99.90
26655;DHT22;14278;50.784;4.630;2022-12-18T13:57:31;1.70;99.90
26655;DHT22;14278;50.784;4.630;2022-12-18T13:59:58;1.70;99.90
26655;DHT22;14278;50.784;4.630;2022-12-18T14:02:27;1.80;99.90
26655;DHT22;14278;50.784;4.630;2022-12-18T14:04:53;1.80;99.90
26655;DHT22;14278;50.784;4.630;2022-12-18T14:07:28;1.90;99.90
26655;DHT22;14278;50.784;4.630;2022-12-18T14:09:59;2.10;99.90
26655;DHT22;14278;50.784;4.630;2022-12-18T14:12:28;2.00;99.90
26655;DHT22;14278;50.784;4.630;2022-12-18T14:15:28;2.10;99.90
26655;DHT22;14278;50.784;4.630;2022-12-18T14:20:43;2.20;99.90
26655;DHT22;14278;50.784;4.630;2022-12-18T14:26:03;1.80;99.90
26655;DHT22;14278;50.784;4.630;2022-12-18T14:28:29;1.70;99.90
26655;DHT22;14278;50.784;4.630;2022-12-18T14:30:55;1.90;99.90
26655;DHT22;14278;50.784;4.630;2022-12-18T14:33:26;2.00;99.90
26655;DHT22;14278;50.784;4.630;2022-12-18T14:36:00;2.00;99.90
26655;DHT22;14278;50.784;4.630;2022-12-18T14:38:35;1.70;99.90
26655;DHT22;14278;50.784;4.630;2022-12-18T14:41:06;1.70;99.90
26655;DHT22;14278;50.784;4.630;2022-12-18T14:43:37;1.90;99.90
26655;DHT22;14278;50.784;4.630;2022-12-18T14:46:05;1.80;99.90
26655;DHT22;14278;50.784;4.630;2022-12-18T14:51:17;1.80;99.90
26655;DHT22;14278;50.784;4.630;2022-12-18T14:53:49;1.80;99.90
26655;DHT22;14278;50.784;4.630;2022-12-18T14:58:57;1.80;99.90
26655;DHT22;14278;50.784;4.630;2022-12-18T15:01:37;1.70;99.90
26655;DHT22;14278;50.784;4.630;2022-12-18T15:04:05;1.80;99.90
26655;DHT22;14278;50.784;4.630;2022-12-18T15:06:48;1.70;99.90
26655;DHT22;14278;50.784;4.630;2022-12-18T15:09:23;1.70;99.90
26655;DHT22;14278;50.784;4.630;2022-12-18T15:11:56;1.80;99.90
26655;DHT22;14278;50.784;4.630;2022-12-18T15:14:42;1.80;99.90
26655;DHT22;14278;50.784;4.630;2022-12-18T15:17:19;1.80;99.90
26655;DHT22;14278;50.784;4.630;2022-12-18T15:19:46;1.60;99.90
26655;DHT22;14278;50.784;4.630;2022-12-18T15:22:20;1.70;99.90
26655;DHT22;14278;50.784;4.630;2022-12-18T15:24:46;1.80;99.90
26655;DHT22;14278;50.784;4.630;2022-12-18T15:27:38;1.70;99.90
26655;DHT22;14278;50.784;4.630;2022-12-18T15:32:37;1.50;99.90
26655;DHT22;14278;50.784;4.630;2022-12-18T15:35:15;1.50;99.90
26655;DHT22;14278;50.784;4.630;2022-12-18T15:37:42;1.60;99.90
26655;DHT22;14278;50.784;4.630;2022-12-18T15:40:14;1.50;99.90
26655;DHT22;14278;50.784;4.630;2022-12-18T15:42:41;1.50;99.90
26655;DHT22;14278;50.784;4.630;2022-12-18T15:45:26;1.50;99.90
26655;DHT22;14278;50.784;4.630;2022-12-18T15:47:52;1.50;99.90
26655;DHT22;14278;50.784;4.630;2022-12-18T15:50:19;1.50;99.90
26655;DHT22;14278;50.784;4.630;2022-12-18T15:52:47;1.60;99.90
26655;DHT22;14278;50.784;4.630;2022-12-18T15:55:20;1.50;99.90
26655;DHT22;14278;50.784;4.630;2022-12-18T15:58:05;1.70;99.90
26655;DHT22;14278;50.784;4.630;2022-12-18T16:00:32;1.70;99.90
26655;DHT22;14278;50.784;4.630;2022-12-18T16:02:59;1.60;99.90
26655;DHT22;14278;50.784;4.630;2022-12-18T16:05:26;1.70;99.90
26655;DHT22;14278;50.784;4.630;2022-12-18T16:07:52;1.60;99.90
26655;DHT22;14278;50.784;4.630;2022-12-18T16:10:17;1.60;99.90
26655;DHT22;14278;50.784;4.630;2022-12-18T16:12:44;1.60;99.90
26655;DHT22;14278;50.784;4.630;2022-12-18T16:15:12;1.60;99.90
26655;DHT22;14278;50.784;4.630;2022-12-18T16:17:39;1.60;99.90
26655;DHT22;14278;50.784;4.630;2022-12-18T16:20:16;1.70;99.90
26655;DHT22;14278;50.784;4.630;2022-12-18T16:22:43;1.70;99.90
26655;DHT22;14278;50.784;4.630;2022-12-18T16:25:25;1.70;99.90
26655;DHT22;14278;50.784;4.630;2022-12-18T16:27:52;1.60;99.90
26655;DHT22;14278;50.784;4.630;2022-12-18T16:30:20;1.50;99.90
26655;DHT22;14278;50.784;4.630;2022-12-18T16:32:46;1.60;99.90
26655;DHT22;14278;50.784;4.630;2022-12-18T16:35:14;1.50;99.90
26655;DHT22;14278;50.784;4.630;2022-12-18T16:37:40;1.70;99.90
26655;DHT22;14278;50.784;4.630;2022-12-18T16:40:08;1.60;99.90
26655;DHT22;14278;50.784;4.630;2022-12-18T16:42:35;1.70;99.90
26655;DHT22;14278;50.784;4.630;2022-12-18T16:45:02;1.60;99.90
26655;DHT22;14278;50.784;4.630;2022-12-18T16:47:28;1.70;99.90
26655;DHT22;14278;50.784;4.630;2022-12-18T16:49:54;1.70;99.90
26655;DHT22;14278;50.784;4.630;2022-12-18T16:52:20;1.60;99.90
26655;DHT22;14278;50.784;4.630;2022-12-18T16:54:46;1.60;99.90
26655;DHT22;14278;50.784;4.630;2022-12-18T16:57:14;1.60;99.90
26655;DHT22;14278;50.784;4.630;2022-12-18T16:59:40;1.50;99.90
26655;DHT22;14278;50.784;4.630;2022-12-18T17:02:12;1.80;99.90
26655;DHT22;14278;50.784;4.630;2022-12-18T17:04:40;1.80;99.90
26655;DHT22;14278;50.784;4.630;2022-12-18T17:07:06;1.70;99.90
26655;DHT22;14278;50.784;4.630;2022-12-18T17:09:32;1.80;99.90
26655;DHT22;14278;50.784;4.630;2022-12-18T17:11:58;1.80;99.90
26655;DHT22;14278;50.784;4.630;2022-12-18T17:14:25;1.80;99.90
26655;DHT22;14278;50.784;4.630;2022-12-18T17:16:53;1.80;99.90
26655;DHT22;14278;50.784;4.630;2022-12-18T17:19:19;1.80;99.90
26655;DHT22;14278;50.784;4.630;2022-12-18T17:21:47;1.90;99.90
26655;DHT22;14278;50.784;4.630;2022-12-18T17:24:14;1.90;99.90
26655;DHT22;14278;50.784;4.630;2022-12-18T17:26:41;1.90;99.90
26655;DHT22;14278;50.784;4.630;2022-12-18T17:29:08;1.90;99.90
26655;DHT22;14278;50.784;4.630;2022-12-18T17:31:34;2.00;99.90